Time;durP1;ratioP1;P1;durP2;ratioP2;P2;SDS_P1;SDS_P2;PMS_P1;PMS_P2;Temp;Humidity;BMP_temperature;BMP_pressure;BME280_temperature;BME280_humidity;BME280_pressure;Samples;Min_cycle;Max_cycle;Signal;HPM_P1;HPM_P2
2021/05/07 00:01:19;;;;;;;6.43;3.87;;;;;;;13.34;100.00;94534.44;10353917;28;20026;-79
2021/05/07 00:06:20;;;;;;;6.95;3.75;;;;;;;13.44;100.00;94530.81;10370882;28;20036;-78
2021/05/07 00:11:20;;;;;;;9.93;4.90;;;;;;;13.14;100.00;94522.06;10371079;28;20040;-79
2021/05/07 00:16:21;;;;;;;5.03;3.85;;;;;;;13.06;100.00;94531.66;10370550;28;20143;-79
2021/05/07 00:21:22;;;;;;;5.68;4.03;;;;;;;12.99;100.00;94521.22;10370510;28;20084;-79
2021/05/07 00:26:22;;;;;;;6.35;3.22;;;;;;;12.70;100.00;94528.66;10370711;28;20105;-79
2021/05/07 00:31:23;;;;;;;6.60;3.23;;;;;;;12.88;100.00;94518.97;10410444;28;20021;-78
2021/05/07 00:36:23;;;;;;;8.90;3.23;;;;;;;12.81;100.00;94517.44;10411339;28;20105;-80
2021/05/07 00:41:23;;;;;;;3.87;3.47;;;;;;;12.62;100.00;94524.75;10410853;28;20366;-80
2021/05/07 00:46:24;;;;;;;10.83;4.17;;;;;;;12.75;100.00;94517.81;10410695;28;20060;-80
2021/05/07 00:51:25;;;;;;;11.18;4.53;;;;;;;12.51;100.00;94515.97;10411107;28;20113;-80
2021/05/07 00:56:25;;;;;;;8.35;4.38;;;;;;;12.43;100.00;94516.63;10410391;28;20030;-80
2021/05/07 01:01:26;;;;;;;14.25;4.47;;;;;;;12.50;100.00;94522.47;10409989;28;20485;-80
2021/05/07 01:06:26;;;;;;;7.80;4.50;;;;;;;12.51;100.00;94509.78;10410501;28;20421;-80
2021/05/07 01:11:26;;;;;;;9.07;4.60;;;;;;;12.34;100.00;94504.91;10409577;28;20025;-79
2021/05/07 01:16:31;;;;;;;13.90;4.32;;;;;;;12.40;100.00;94509.13;10409111;28;20053;-80
2021/05/07 01:21:33;;;;;;;10.05;4.60;;;;;;;12.38;100.00;94509.41;10408945;28;20022;-80
2021/05/07 01:26:34;;;;;;;6.88;4.30;;;;;;;12.38;100.00;94514.00;10408894;28;20428;-80
2021/05/07 01:31:34;;;;;;;7.55;4.68;;;;;;;12.14;100.00;94521.03;10368312;28;20026;-79
2021/05/07 01:36:35;;;;;;;9.10;4.60;;;;;;;11.99;100.00;94515.81;10367563;28;20029;-80
2021/05/07 01:41:35;;;;;;;6.55;5.10;;;;;;;11.91;100.00;94513.72;10350745;28;20140;-78
2021/05/07 01:46:35;;;;;;;5.70;4.27;;;;;;;11.89;100.00;94514.03;10367670;28;20136;-78
2021/05/07 01:51:36;;;;;;;7.57;4.53;;;;;;;11.86;100.00;94503.00;10367637;28;20281;-78
2021/05/07 01:56:36;;;;;;;11.67;4.90;;;;;;;11.82;100.00;94510.06;10367507;28;20044;-78
2021/05/07 02:01:37;;;;;;;9.53;4.13;;;;;;;11.80;100.00;94505.78;10367058;28;20057;-79
2021/05/07 02:06:37;;;;;;;12.87;4.70;;;;;;;11.76;100.00;94512.00;10366917;28;20022;-79
2021/05/07 02:11:37;;;;;;;8.85;5.03;;;;;;;11.73;100.00;94510.69;10367207;28;20339;-79
2021/05/07 02:16:38;;;;;;;9.13;4.87;;;;;;;11.57;100.00;94499.28;10366772;28;20030;-78
2021/05/07 02:21:38;;;;;;;10.30;5.00;;;;;;;11.54;100.00;94493.66;10366462;28;20030;-78
2021/05/07 02:26:38;;;;;;;10.43;5.30;;;;;;;11.49;100.00;94501.81;10350513;28;20026;-79
2021/05/07 02:31:39;;;;;;;17.17;4.77;;;;;;;11.61;100.00;94494.16;10407164;28;20029;-79
2021/05/07 02:36:40;;;;;;;12.93;4.97;;;;;;;11.58;100.00;94500.91;10406895;28;20503;-78
2021/05/07 02:41:42;;;;;;;9.23;4.43;;;;;;;11.59;100.00;94496.31;10407272;28;20028;-78
2021/05/07 02:46:42;;;;;;;13.13;4.53;;;;;;;11.57;100.00;94501.19;10406609;28;20547;-79
2021/05/07 02:51:42;;;;;;;9.47;4.23;;;;;;;11.43;100.00;94499.16;10407224;28;20036;-79
2021/05/07 02:56:43;;;;;;;8.65;4.40;;;;;;;11.56;100.00;94500.38;10406773;28;20419;-78
2021/05/07 03:01:43;;;;;;;5.70;3.87;;;;;;;11.52;100.00;94503.91;10406881;28;20026;-79
2021/05/07 03:06:43;;;;;;;8.23;4.53;;;;;;;11.52;100.00;94501.22;10406483;28;20017;-78
2021/05/07 03:11:44;;;;;;;9.30;4.13;;;;;;;11.55;100.00;94506.03;10407157;28;20299;-79
2021/05/07 03:16:45;;;;;;;7.20;4.40;;;;;;;11.43;100.00;94514.50;10406205;28;20037;-78
2021/05/07 03:21:46;;;;;;;5.13;4.33;;;;;;;11.48;100.00;94514.44;10406160;28;20087;-79
2021/05/07 03:26:46;;;;;;;17.02;4.85;;;;;;;11.41;100.00;94527.41;10404084;28;20306;-79
2021/05/07 03:31:46;;;;;;;8.00;4.97;;;;;;;11.28;100.00;94521.59;10364918;28;20061;-79
2021/05/07 03:36:47;;;;;;;10.27;5.57;;;;;;;11.31;100.00;94533.69;10364787;28;20269;-78
2021/05/07 03:41:47;;;;;;;11.50;5.60;;;;;;;11.26;100.00;94536.44;10368973;28;20120;-79
2021/05/07 03:46:47;;;;;;;12.07;6.03;;;;;;;11.37;100.00;94545.22;10354082;28;20065;-79
2021/05/07 03:51:48;;;;;;;13.57;6.77;;;;;;;11.39;100.00;94549.25;10371458;28;20037;-78
2021/05/07 03:56:48;;;;;;;12.03;6.30;;;;;;;11.52;100.00;94539.69;10354612;28;20277;-78
2021/05/07 04:01:48;;;;;;;14.20;5.97;;;;;;;11.67;100.00;94540.66;10371464;28;20026;-79
2021/05/07 04:06:49;;;;;;;10.83;5.77;;;;;;;11.63;100.00;94545.78;10372186;28;20029;-79
2021/05/07 04:11:58;;;;;;;9.57;5.80;;;;;;;11.73;100.00;94545.69;10371918;28;20029;-78
2021/05/07 04:16:59;;;;;;;7.65;4.55;;;;;;;11.89;100.00;94565.19;10372048;28;20022;-79
2021/05/07 04:21:59;;;;;;;4.95;4.35;;;;;;;11.83;100.00;94560.13;10371461;28;20497;-78
2021/05/07 04:26:59;;;;;;;6.23;4.53;;;;;;;11.76;100.00;94568.53;10358060;28;20155;-78
2021/05/07 04:32:00;;;;;;;8.52;4.80;;;;;;;11.92;100.00;94570.00;10412034;28;20108;-78
2021/05/07 04:37:00;;;;;;;6.47;4.53;;;;;;;12.08;100.00;94569.84;10411701;28;20551;-78
2021/05/07 04:42:01;;;;;;;9.37;4.87;;;;;;;12.39;100.00;94583.78;10393196;28;20284;-79
2021/05/07 04:47:01;;;;;;;15.80;5.50;;;;;;;12.86;100.00;94594.78;10411452;28;20049;-79
2021/05/07 04:52:02;;;;;;;5.87;4.83;;;;;;;12.91;100.00;94585.84;10409744;28;20029;-78
2021/05/07 04:57:02;;;;;;;6.03;4.50;;;;;;;13.39;100.00;94584.88;10411130;28;20033;-79
2021/05/07 05:02:03;;;;;;;12.30;5.37;;;;;;;13.51;100.00;94590.63;10410628;28;20060;-79
2021/05/07 05:07:07;;;;;;;8.80;5.10;;;;;;;13.79;100.00;94591.50;10410474;28;20025;-79
2021/05/07 05:12:07;;;;;;;18.70;6.88;;;;;;;14.18;100.00;94586.75;10410095;28;20021;-79
2021/05/07 05:17:08;;;;;;;14.10;5.45;;;;;;;14.57;100.00;94588.16;10410380;28;20029;-78
2021/05/07 05:22:08;;;;;;;8.73;5.68;;;;;;;14.74;100.00;94597.59;10409536;28;20037;-79
2021/05/07 05:27:09;;;;;;;12.33;4.90;;;;;;;15.58;100.00;94590.81;10403263;28;20041;-79
2021/05/07 05:32:09;;;;;;;14.27;4.77;;;;;;;16.08;91.46;94587.16;10368424;28;20037;-79
2021/05/07 05:37:11;;;;;;;10.00;4.40;;;;;;;16.67;87.89;94586.88;10368249;28;20279;-79
2021/05/07 05:42:12;;;;;;;6.40;4.45;;;;;;;16.80;82.54;94582.47;10367815;28;20477;-78
2021/05/07 05:47:12;;;;;;;10.65;5.65;;;;;;;17.10;80.38;94582.69;10367830;28;20034;-79
2021/05/07 05:52:12;;;;;;;8.67;3.77;;;;;;;17.62;75.07;94571.00;10367640;28;20477;-79
2021/05/07 05:57:13;;;;;;;7.37;3.10;;;;;;;17.65;73.05;94578.53;10367743;28;20034;-79
2021/05/07 06:02:13;;;;;;;6.30;3.40;;;;;;;18.09;74.28;94581.16;10367349;28;20022;-80
2021/05/07 06:07:13;;;;;;;6.57;3.83;;;;;;;18.55;65.19;94582.28;10367358;28;20022;-79
2021/05/07 06:12:14;;;;;;;9.90;4.60;;;;;;;19.02;65.50;94595.03;10367520;28;20106;-79
2021/05/07 06:17:14;;;;;;;11.90;4.00;;;;;;;19.45;58.34;94593.91;10367667;28;20280;-79
2021/05/07 06:22:15;;;;;;;7.93;3.58;;;;;;;19.80;55.68;94587.38;10366754;28;20037;-79
2021/05/07 06:27:15;;;;;;;8.73;3.80;;;;;;;20.10;53.96;94565.41;10366579;28;20720;-79
2021/05/07 06:32:16;;;;;;;7.90;3.43;;;;;;;21.00;53.20;94563.66;10367150;28;20030;-79
2021/05/07 06:37:17;;;;;;;7.90;3.33;;;;;;;21.96;48.68;94558.59;10366723;28;20272;-79
2021/05/07 06:42:18;;;;;;;6.22;3.42;;;;;;;23.26;45.64;94552.69;10367811;28;20080;-79
2021/05/07 06:47:19;;;;;;;9.55;3.22;;;;;;;24.06;43.43;94542.97;10407454;28;20044;-79
2021/05/07 06:52:20;;;;;;;7.40;2.75;;;;;;;23.91;46.14;94543.84;10407539;28;20041;-80
2021/05/07 06:57:20;;;;;;;9.48;2.95;;;;;;;22.99;43.90;94545.06;10407076;28;20539;-80
2021/05/07 07:02:21;;;;;;;6.83;3.33;;;;;;;23.27;44.47;94535.88;10407160;28;20025;-80
2021/05/07 07:07:24;;;;;;;6.15;2.97;;;;;;;24.50;42.60;94528.03;10407417;28;20029;-79
2021/05/07 07:12:24;;;;;;;5.13;2.90;;;;;;;25.54;38.96;94519.72;10406880;28;20029;-79
2021/05/07 07:17:24;;;;;;;5.87;2.37;;;;;;;26.69;37.46;94529.16;10411593;28;20029;-79
2021/05/07 07:22:25;;;;;;;10.35;2.05;;;;;;;28.30;34.91;94522.06;10414626;28;20039;-79
2021/05/07 07:27:25;;;;;;;4.67;2.10;;;;;;;28.85;34.07;94504.31;10406326;28;20034;-79
2021/05/07 07:32:26;;;;;;;7.53;2.03;;;;;;;29.36;32.06;94498.69;10373386;28;20021;-78
2021/05/07 07:37:27;;;;;;;8.07;2.67;;;;;;;29.99;31.43;94496.84;10373379;28;20409;-79
2021/05/07 07:42:27;;;;;;;7.13;2.33;;;;;;;30.07;31.61;94477.41;10372544;28;20050;-78
2021/05/07 07:47:28;;;;;;;4.37;2.33;;;;;;;30.23;30.66;94472.16;10372628;28;20025;-78
2021/05/07 07:52:28;;;;;;;13.73;4.00;;;;;;;29.33;32.78;94461.50;10372995;28;20034;-78
2021/05/07 07:57:29;;;;;;;14.25;5.30;;;;;;;29.72;31.56;94454.22;10372114;28;20057;-79
2021/05/07 08:02:29;;;;;;;16.70;5.70;;;;;;;30.70;29.69;94457.13;10372147;28;20021;-79
2021/05/07 08:07:29;;;;;;;14.13;5.30;;;;;;;31.27;29.38;94444.69;10372382;28;20277;-80
2021/05/07 08:12:30;;;;;;;20.17;8.03;;;;;;;32.35;28.40;94455.16;10371611;28;20018;-79
2021/05/07 08:17:31;;;;;;;18.00;7.13;;;;;;;32.67;27.92;94439.94;10371734;28;20027;-79
2021/05/07 08:22:32;;;;;;;13.63;3.63;;;;;;;32.19;28.19;94435.56;10371972;28;20033;-79
2021/05/07 08:27:33;;;;;;;9.10;3.15;;;;;;;31.56;29.29;94428.44;10379812;28;20025;-79
2021/05/07 08:32:33;;;;;;;13.10;3.40;;;;;;;31.62;30.19;94426.81;10394306;28;20067;-79
2021/05/07 08:37:40;;;;;;;8.82;2.80;;;;;;;31.99;26.92;94424.31;10394616;28;20068;-79
2021/05/07 08:42:40;;;;;;;10.48;2.58;;;;;;;31.44;28.03;94423.44;10411350;28;20037;-79
2021/05/07 08:47:43;;;;;;;18.67;2.53;;;;;;;29.46;30.46;94418.34;10411507;28;20029;-79
2021/05/07 08:52:43;;;;;;;6.50;2.10;;;;;;;30.11;29.92;94426.28;10411274;28;20032;-79
2021/05/07 08:57:44;;;;;;;6.03;1.50;;;;;;;32.00;28.01;94412.78;10411029;28;20531;-79
2021/05/07 09:02:44;;;;;;;5.90;1.67;;;;;;;32.43;28.32;94411.34;10410746;28;20022;-79
2021/05/07 09:07:54;;;;;;;7.27;1.60;;;;;;;32.43;26.72;94396.63;10410293;28;20017;-79
2021/05/07 09:12:55;;;;;;;5.80;1.70;;;;;;;32.06;28.08;94398.41;10410695;28;20397;-79
2021/05/07 09:18:01;;;;;;;3.83;2.15;;;;;;;31.88;27.91;94393.91;10409707;28;20025;-79
2021/05/07 09:23:02;;;;;;;;;;;;;;;32.65;26.15;94383.13;10392114;28;20079;-79
2021/05/07 09:28:12;;;;;;;3.55;1.65;;;;;;;32.68;26.47;94385.06;10396537;28;19909;-78
2021/05/07 09:33:15;;;;;;;10.23;1.92;;;;;;;31.89;26.64;94383.56;10368059;28;20424;-79
2021/05/07 09:38:18;;;;;;;4.50;1.92;;;;;;;32.08;27.42;94371.78;10367397;28;20034;-79
2021/05/07 09:43:20;;;;;;;6.60;1.80;;;;;;;31.58;27.86;94361.34;10368733;28;20049;-78
2021/05/07 09:48:23;;;;;;;8.35;2.00;;;;;;;33.82;25.14;94355.38;10368024;28;20251;-80
2021/05/07 09:53:26;;;;;;;7.50;1.63;;;;;;;34.33;25.18;94322.28;10368675;28;20026;-80
2021/05/07 09:58:27;;;;;;;6.15;1.70;;;;;;;32.70;25.10;94313.13;10368712;28;20473;-80
2021/05/07 10:03:28;;;;;;;4.63;1.38;;;;;;;30.80;24.74;94329.41;10367811;28;20034;-80
2021/05/07 10:08:29;;;;;;;2.27;1.10;;;;;;;27.85;28.23;94317.94;10367555;28;20080;-80
2021/05/07 10:13:32;;;;;;;2.92;1.20;;;;;;;27.08;29.73;94321.75;10367803;28;20493;-79
2021/05/07 10:18:34;;;;;;;2.25;1.15;;;;;;;28.03;29.05;94314.41;10367311;28;20029;-79
2021/05/07 10:23:36;;;;;;;4.32;0.75;;;;;;;30.45;26.06;94314.75;10367021;28;20053;-80
2021/05/07 10:28:44;;;;;;;2.25;0.90;;;;;;;28.88;26.07;94318.16;10367146;28;20033;-79
2021/05/07 10:33:58;;;;;;;4.22;1.27;;;;;;;32.33;22.98;94301.06;10349725;28;20018;-80
2021/05/07 10:39:00;;;;;;;5.30;1.13;;;;;;;32.22;26.05;94294.91;10349461;28;20037;-80
2021/05/07 10:44:00;;;;;;;5.25;0.80;;;;;;;31.01;22.60;94291.50;10364167;28;20081;-80
2021/05/07 10:49:00;;;;;;;3.22;0.90;;;;;;;29.39;24.88;94281.94;10408804;28;20072;-80
2021/05/07 10:54:09;;;;;;;4.47;0.80;;;;;;;28.80;23.55;94284.25;10416302;28;20044;-80
2021/05/07 10:59:19;;;;;;;1.77;0.90;;;;;;;31.02;24.05;94274.47;10415485;28;20280;-80
2021/05/07 11:04:20;;;;;;;1.52;0.70;;;;;;;30.68;22.58;94282.78;10381926;28;20029;-80
2021/05/07 11:09:22;;;;;;;1.30;0.50;;;;;;;28.65;25.43;94266.13;10415061;28;20041;-80
2021/05/07 11:14:26;;;;;;;1.90;0.63;;;;;;;26.75;25.66;94262.97;10414782;28;20275;-80
2021/05/07 11:19:31;;;;;;;1.98;1.50;;;;;;;26.24;27.20;94250.91;10415261;28;20141;-80
2021/05/07 11:24:40;;;;;;;1.92;1.13;;;;;;;26.33;28.72;94247.81;10397035;28;20033;-80
2021/05/07 11:29:40;;;;;;;0.68;0.65;;;;;;;26.12;25.90;94247.69;10388229;28;20488;-80
2021/05/07 11:34:41;;;;;;;2.80;1.10;;;;;;;25.91;29.08;94241.66;10373767;28;20084;-80
2021/05/07 11:39:41;;;;;;;3.50;1.35;;;;;;;26.04;28.79;94244.91;10372898;28;20063;-80
2021/05/07 11:44:48;;;;;;;6.10;1.33;;;;;;;25.37;30.52;94224.75;10372901;28;20149;-79
2021/05/07 11:49:50;;;;;;;7.40;1.08;;;;;;;24.72;31.01;94235.13;10373274;28;20099;-78
2021/05/07 11:54:51;;;;;;;5.75;1.75;;;;;;;24.78;31.16;94221.81;10373347;28;20034;-78
2021/05/07 11:59:51;;;;;;;4.30;0.93;;;;;;;24.49;32.08;94206.97;10372580;28;20061;-79
2021/05/07 12:04:56;;;;;;;3.70;1.02;;;;;;;24.20;32.81;94212.13;10371645;28;20606;-79
2021/05/07 12:09:59;;;;;;;6.97;2.47;;;;;;;24.37;32.69;94222.53;10372069;28;20108;-80
2021/05/07 12:15:10;;;;;;;4.60;1.60;;;;;;;24.62;31.23;94208.31;10371540;28;20061;-80
2021/05/07 12:20:16;;;;;;;4.05;0.95;;;;;;;24.50;30.35;94203.06;10384828;28;20045;-79
2021/05/07 12:25:20;;;;;;;2.25;1.25;;;;;;;24.45;30.33;94206.94;10371856;28;20048;-79
2021/05/07 12:30:23;;;;;;;3.88;1.27;;;;;;;24.34;29.83;94181.31;10402797;28;20037;-80
2021/05/07 12:35:42;;;;;;;6.07;1.25;;;;;;;24.74;29.18;94179.78;10411798;28;20111;-80
2021/05/07 12:40:44;;;;;;;1.40;1.02;;;;;;;24.94;29.38;94166.63;10412244;28;20033;-80
2021/05/07 12:45:48;;;;;;;2.33;1.00;;;;;;;24.42;30.91;94166.50;10411420;28;20057;-79
2021/05/07 12:50:49;;;;;;;1.85;0.68;;;;;;;24.39;30.52;94148.81;10411299;28;20148;-78
2021/05/07 12:55:51;;;;;;;3.47;1.00;;;;;;;23.94;29.47;94156.13;10411787;28;20029;-79
2021/05/07 13:00:53;;;;;;;2.38;0.70;;;;;;;23.87;28.79;94136.78;10410304;28;20499;-79
2021/05/07 13:05:53;;;;;;;1.95;0.82;;;;;;;24.03;28.46;94123.69;10410412;28;20034;-79
2021/05/07 13:10:54;;;;;;;6.37;1.10;;;;;;;23.89;28.83;94126.28;10411196;28;20026;-79
2021/05/07 13:15:54;;;;;;;2.00;1.00;;;;;;;23.99;29.31;94136.56;10409117;28;20531;-79
2021/05/07 13:20:54;;;;;;;1.27;0.93;;;;;;;23.93;31.02;94129.03;10410219;28;20056;-79
2021/05/07 13:25:55;;;;;;;3.47;1.10;;;;;;;24.25;31.03;94129.41;10410471;28;20036;-79
2021/05/07 13:30:56;;;;;;;6.53;1.38;;;;;;;24.47;30.84;94135.13;10355509;28;20356;-79
2021/05/07 13:35:57;;;;;;;1.58;0.70;;;;;;;24.64;29.77;94131.78;10368472;28;20034;-79
2021/05/07 13:40:58;;;;;;;2.42;0.80;;;;;;;24.76;29.48;94121.72;10368941;28;20119;-79
2021/05/07 13:45:58;;;;;;;3.07;1.10;;;;;;;24.76;31.07;94124.47;10367953;28;20145;-79
2021/05/07 13:50:58;;;;;;;4.37;1.30;;;;;;;24.87;31.09;94106.09;10367818;28;20030;-80
2021/05/07 13:55:59;;;;;;;2.50;0.80;;;;;;;24.96;32.24;94109.28;10368382;28;20030;-79
2021/05/07 14:00:59;;;;;;;9.33;1.47;;;;;;;24.80;30.64;94097.78;10367549;28;20034;-79
2021/05/07 14:05:59;;;;;;;6.33;1.20;;;;;;;24.85;31.70;94100.19;10367614;28;20355;-79
2021/05/07 14:11:00;;;;;;;2.90;1.00;;;;;;;25.04;31.65;94090.91;10367797;28;20028;-79
2021/05/07 14:16:00;;;;;;;4.93;1.30;;;;;;;24.76;28.99;94086.75;10366848;28;20026;-79
2021/05/07 14:21:00;;;;;;;2.73;0.90;;;;;;;24.64;29.43;94078.81;10366800;28;20034;-79
2021/05/07 14:26:01;;;;;;;1.87;1.03;;;;;;;24.47;28.96;94066.47;10366670;28;20045;-79
2021/05/07 14:31:01;;;;;;;8.50;0.80;;;;;;;24.70;28.74;94060.81;10404443;28;20077;-79
2021/05/07 14:36:02;;;;;;;6.07;1.57;;;;;;;24.63;28.05;94061.53;10407258;28;20033;-79
2021/05/07 14:41:03;;;;;;;3.90;0.88;;;;;;;24.32;26.63;94055.34;10407162;28;20856;-79
2021/05/07 14:46:03;;;;;;;8.25;1.20;;;;;;;24.37;28.48;94062.44;10407480;28;20471;-79
2021/05/07 14:51:04;;;;;;;5.80;1.10;;;;;;;24.40;29.04;94051.47;10406844;28;20029;-79
2021/05/07 14:56:06;;;;;;;5.00;1.00;;;;;;;24.37;31.22;94052.25;10407426;28;20044;-79
2021/05/07 15:01:07;;;;;;;1.58;1.17;;;;;;;24.20;31.25;94048.16;10407626;28;20032;-79
2021/05/07 15:06:09;;;;;;;6.37;1.57;;;;;;;24.18;31.59;94035.97;10407101;28;20025;-79
2021/05/07 15:11:10;;;;;;;5.90;1.15;;;;;;;24.04;31.36;94042.94;10389410;28;20696;-79
2021/05/07 15:16:10;;;;;;;5.57;0.90;;;;;;;23.95;31.52;94025.19;10407468;28;20087;-80
2021/05/07 15:21:10;;;;;;;3.53;0.93;;;;;;;23.86;30.59;94037.22;10406465;28;20713;-80
2021/05/07 15:26:11;;;;;;;3.10;1.13;;;;;;;23.80;30.13;94018.72;10406944;28;20535;-79
2021/05/07 15:31:11;;;;;;;3.03;0.90;;;;;;;23.68;30.65;94027.97;10368358;28;20381;-80
2021/05/07 15:36:12;;;;;;;2.63;1.30;;;;;;;23.65;31.22;94021.31;10366464;28;20673;-80
2021/05/07 15:41:12;;;;;;;5.18;1.80;;;;;;;23.65;31.42;94017.75;10372914;28;20025;-80
2021/05/07 15:46:13;;;;;;;5.65;1.98;;;;;;;23.52;31.34;94028.97;10373438;28;20050;-79
2021/05/07 15:51:13;;;;;;;4.07;1.40;;;;;;;23.44;32.03;94032.78;10372714;28;20032;-79
2021/05/07 15:56:14;;;;;;;8.97;3.30;;;;;;;23.26;32.15;94029.03;10372032;28;20120;-79
2021/05/07 16:01:14;;;;;;;3.50;1.33;;;;;;;23.08;33.55;94028.75;10355018;28;20034;-80
2021/05/07 16:06:15;;;;;;;7.17;1.40;;;;;;;22.99;34.84;94023.56;10372144;28;20091;-79
2021/05/07 16:11:15;;;;;;;3.17;1.77;;;;;;;22.92;34.86;94015.25;10372003;28;20372;-79
2021/05/07 16:16:17;;;;;;;5.73;1.40;;;;;;;22.84;33.73;94017.06;10372343;28;20359;-79
2021/05/07 16:21:17;;;;;;;6.07;1.38;;;;;;;22.93;34.37;94009.38;10371566;28;20513;-79
2021/05/07 16:26:20;;;;;;;4.13;1.55;;;;;;;22.87;35.37;94019.06;10371165;28;20069;-79
2021/05/07 16:31:22;;;;;;;2.47;1.63;;;;;;;22.66;35.17;94019.53;10393998;28;20029;-79
2021/05/07 16:36:26;;;;;;;3.80;1.13;;;;;;;22.63;36.40;94012.88;10411989;28;20068;-79
2021/05/07 16:41:27;;;;;;;7.55;1.50;;;;;;;22.42;37.45;94024.25;10412006;28;20037;-80
2021/05/07 16:46:27;;;;;;;4.40;1.60;;;;;;;22.31;37.45;94017.78;10411563;28;20412;-80
2021/05/07 16:51:28;;;;;;;2.77;1.50;;;;;;;22.19;38.12;94030.50;10411626;28;20082;-79
2021/05/07 16:56:28;;;;;;;3.70;1.40;;;;;;;21.93;39.76;94036.69;10411165;28;20399;-79
2021/05/07 17:01:29;;;;;;;6.40;1.40;;;;;;;21.79;39.89;94030.94;10411112;28;20405;-79
2021/05/07 17:06:30;;;;;;;8.32;2.17;;;;;;;21.58;41.16;94029.38;10393554;28;20024;-79
2021/05/07 17:11:31;;;;;;;6.97;1.60;;;;;;;21.51;40.86;94042.88;10410154;28;20025;-79
2021/05/07 17:16:32;;;;;;;6.38;1.70;;;;;;;21.41;42.07;94036.06;10410524;28;20037;-79
2021/05/07 17:21:32;;;;;;;7.47;1.97;;;;;;;21.38;42.38;94044.16;10410030;28;20841;-79
2021/05/07 17:26:33;;;;;;;5.73;1.43;;;;;;;21.24;42.88;94047.38;10408829;28;20275;-79
2021/05/07 17:31:33;;;;;;;6.55;1.20;;;;;;;21.05;43.54;94048.97;10368888;28;20014;-79
2021/05/07 17:36:34;;;;;;;6.27;1.80;;;;;;;20.91;44.19;94054.91;10369256;28;20025;-79
2021/05/07 17:41:35;;;;;;;5.07;1.55;;;;;;;20.86;45.20;94060.66;10351134;28;20320;-79
2021/05/07 17:46:38;;;;;;;7.47;2.60;;;;;;;20.74;46.28;94060.75;10350673;28;20538;-78
2021/05/07 17:51:38;;;;;;;4.05;1.30;;;;;;;20.64;46.35;94071.03;10368945;28;20029;-79
2021/05/07 17:56:39;;;;;;;6.50;2.37;;;;;;;20.59;46.69;94062.31;10367859;28;20029;-79
2021/05/07 18:01:39;;;;;;;11.80;2.75;;;;;;;20.47;46.51;94065.91;10367432;28;20467;-79
2021/05/07 18:06:40;;;;;;;5.40;1.35;;;;;;;20.30;45.79;94072.53;10368347;28;20543;-79
2021/05/07 18:11:40;;;;;;;8.73;2.10;;;;;;;20.23;47.28;94084.03;10367329;28;20017;-79
2021/05/07 18:16:40;;;;;;;7.00;1.87;;;;;;;20.22;46.17;94085.22;10367841;28;20350;-80
2021/05/07 18:21:41;;;;;;;6.10;1.97;;;;;;;20.13;46.90;94081.84;10367732;28;20332;-80
2021/05/07 18:26:41;;;;;;;6.73;1.80;;;;;;;20.00;47.78;94083.84;10369011;28;20285;-80
2021/05/07 18:31:42;;;;;;;10.93;2.15;;;;;;;19.93;47.61;94086.38;10407846;28;20032;-80
2021/05/07 18:36:42;;;;;;;7.13;2.20;;;;;;;19.94;48.71;94104.31;10408415;28;20143;-80
2021/05/07 18:41:42;;;;;;;5.30;2.03;;;;;;;19.82;47.71;94102.44;10407617;28;20489;-80
2021/05/07 18:46:44;;;;;;;8.60;2.00;;;;;;;19.79;49.25;94109.38;10407386;28;20296;-80
2021/05/07 18:51:45;;;;;;;10.13;2.10;;;;;;;19.68;47.24;94121.91;10408140;28;20018;-79
2021/05/07 18:56:46;;;;;;;7.50;2.53;;;;;;;19.69;47.11;94119.97;10407531;28;20041;-80
2021/05/07 19:01:46;;;;;;;7.45;2.92;;;;;;;19.63;47.98;94112.03;10407036;28;20025;-80
2021/05/07 19:06:47;;;;;;;7.07;2.13;;;;;;;19.63;46.63;94124.88;10408104;28;20029;-80
2021/05/07 19:11:47;;;;;;;8.52;2.83;;;;;;;19.57;47.92;94118.06;10409521;28;20047;-80
2021/05/07 19:16:48;;;;;;;5.93;2.03;;;;;;;19.50;48.41;94115.16;10415300;28;20025;-80
2021/05/07 19:21:48;;;;;;;6.43;2.25;;;;;;;19.43;50.76;94123.91;10415444;28;20361;-80
2021/05/07 19:26:49;;;;;;;7.20;2.00;;;;;;;19.28;50.89;94115.31;10411839;28;20017;-80
2021/05/07 19:31:50;;;;;;;3.00;1.63;;;;;;;19.29;49.05;94118.81;10374436;28;20269;-80
2021/05/07 19:36:51;;;;;;;10.77;2.35;;;;;;;19.28;50.50;94120.78;10373590;28;20038;-80
2021/05/07 19:41:51;;;;;;;8.27;2.00;;;;;;;19.20;52.52;94123.59;10373681;28;20042;-80
2021/05/07 19:46:52;;;;;;;5.47;1.98;;;;;;;19.19;52.05;94116.59;10372781;28;20058;-80
2021/05/07 19:51:52;;;;;;;15.93;2.63;;;;;;;19.10;52.88;94117.50;10355080;28;20110;-80
2021/05/07 19:56:52;;;;;;;10.60;2.10;;;;;;;19.04;53.92;94118.06;10355538;28;20040;-80
2021/05/07 20:01:53;;;;;;;11.07;2.30;;;;;;;18.90;56.97;94118.41;10372841;28;20088;-80
2021/05/07 20:06:53;;;;;;;5.00;2.13;;;;;;;18.81;56.04;94113.06;10372703;28;20104;-80
2021/05/07 20:11:53;;;;;;;5.10;1.37;;;;;;;18.66;51.57;94105.59;10372723;28;20407;-79
2021/05/07 20:16:54;;;;;;;4.27;1.37;;;;;;;18.85;49.91;94113.16;10372124;28;20745;-79
2021/05/07 20:21:54;;;;;;;6.10;1.33;;;;;;;18.85;50.45;94124.88;10353570;28;20049;-79
2021/05/07 20:26:55;;;;;;;3.00;1.20;;;;;;;18.85;50.63;94135.75;10372047;28;20334;-80
2021/05/07 20:31:55;;;;;;;4.75;1.40;;;;;;;18.85;53.27;94154.81;10371453;28;20335;-80
2021/05/07 20:37:02;;;;;;;3.30;2.03;;;;;;;18.79;51.93;94150.72;10371056;28;20021;-79
2021/05/07 20:42:02;;;;;;;3.83;1.73;;;;;;;18.59;53.09;94153.19;10353718;28;20343;-79
2021/05/07 20:47:03;;;;;;;6.20;2.30;;;;;;;18.60;55.58;94154.78;10410701;28;20053;-79
2021/05/07 20:52:03;;;;;;;5.47;1.90;;;;;;;18.47;57.11;94155.88;10411736;28;20063;-78
2021/05/07 20:57:05;;;;;;;5.05;1.98;;;;;;;18.34;57.69;94168.69;10411837;28;20428;-79
2021/05/07 21:02:06;;;;;;;4.22;2.40;;;;;;;18.24;60.05;94161.75;10410714;28;20083;-78
2021/05/07 21:07:06;;;;;;;6.63;2.65;;;;;;;18.07;63.34;94161.91;10411200;28;20037;-79
2021/05/07 21:12:07;;;;;;;13.43;2.60;;;;;;;17.71;64.47;94166.06;10411736;28;20396;-78
2021/05/07 21:17:07;;;;;;;7.50;2.13;;;;;;;17.50;67.41;94161.41;10411115;28;20041;-79
2021/05/07 21:22:08;;;;;;;6.40;2.67;;;;;;;17.31;70.93;94166.50;10410676;28;20299;-79
2021/05/07 21:27:09;;;;;;;9.40;3.40;;;;;;;17.28;76.21;94173.38;10387728;28;20029;-79
2021/05/07 21:32:10;;;;;;;8.07;2.28;;;;;;;17.23;77.19;94176.28;10369228;28;20030;-79
2021/05/07 21:37:11;;;;;;;6.85;2.65;;;;;;;17.07;80.47;94174.13;10368499;28;20030;-79
2021/05/07 21:42:11;;;;;;;11.87;4.77;;;;;;;16.88;82.69;94174.56;10368848;28;20038;-78
2021/05/07 21:47:11;;;;;;;4.93;2.70;;;;;;;16.86;78.35;94186.84;10351237;28;20080;-79
2021/05/07 21:52:12;;;;;;;12.83;2.73;;;;;;;16.90;80.60;94185.88;10368613;28;20477;-79
2021/05/07 21:57:13;;;;;;;5.95;2.78;;;;;;;16.78;83.08;94184.94;10369601;28;20045;-79
2021/05/07 22:02:13;;;;;;;9.35;2.80;;;;;;;16.81;80.54;94195.94;10368189;28;20038;-79
2021/05/07 22:07:14;;;;;;;8.18;2.00;;;;;;;16.79;80.22;94209.03;10367585;28;20481;-78
2021/05/07 22:12:14;;;;;;;8.88;3.40;;;;;;;16.74;85.37;94210.03;10367708;28;20404;-79
2021/05/07 22:17:15;;;;;;;8.00;3.13;;;;;;;16.55;86.68;94207.69;10368359;28;20034;-79
2021/05/07 22:22:15;;;;;;;8.80;2.40;;;;;;;16.52;88.68;94208.34;10367404;28;20296;-79
2021/05/07 22:27:17;;;;;;;6.20;2.07;;;;;;;16.46;90.06;94206.91;10374158;28;20108;-79
2021/05/07 22:32:17;;;;;;;4.07;1.92;;;;;;;16.34;88.76;94218.44;10408817;28;20075;-79
2021/05/07 22:37:17;;;;;;;9.27;2.17;;;;;;;16.21;90.30;94220.22;10408254;28;20079;-79
2021/05/07 22:42:18;;;;;;;6.83;2.63;;;;;;;16.22;92.57;94219.09;10408001;28;20042;-78
2021/05/07 22:47:18;;;;;;;8.50;2.85;;;;;;;16.11;93.97;94236.00;10413663;28;20488;-79
2021/05/07 22:52:19;;;;;;;6.40;2.40;;;;;;;16.16;93.48;94222.28;10417069;28;20033;-79
2021/05/07 22:57:19;;;;;;;6.88;2.25;;;;;;;15.84;99.04;94238.72;10415996;28;20421;-79
2021/05/07 23:02:20;;;;;;;6.80;2.35;;;;;;;15.94;96.17;94223.28;10416559;28;20018;-79
2021/05/07 23:07:20;;;;;;;6.10;2.50;;;;;;;15.88;98.52;94223.44;10416159;28;20853;-79
2021/05/07 23:12:21;;;;;;;5.10;1.87;;;;;;;15.85;99.75;94228.69;10415619;28;20049;-79